sensor_id;sensor_type;location;lat;lon;timestamp;temperature;humidity
37222;DHT22;23119;51.842;-2.230;2022-12-10T00:01:42;0.90;99.90
37222;DHT22;23119;51.842;-2.230;2022-12-10T00:04:08;0.90;99.90
37222;DHT22;23119;51.842;-2.230;2022-12-10T00:06:35;0.90;99.90
37222;DHT22;23119;51.842;-2.230;2022-12-10T00:09:03;0.80;99.90
37222;DHT22;23119;51.842;-2.230;2022-12-10T00:11:31;0.80;99.90
37222;DHT22;23119;51.842;-2.230;2022-12-10T00:13:59;0.80;99.90
37222;DHT22;23119;51.842;-2.230;2022-12-10T00:16:29;0.80;99.90
37222;DHT22;23119;51.842;-2.230;2022-12-10T00:19:03;0.80;99.90
37222;DHT22;23119;51.842;-2.230;2022-12-10T00:21:38;0.80;99.90
37222;DHT22;23119;51.842;-2.230;2022-12-10T00:24:07;0.80;99.90
37222;DHT22;23119;51.842;-2.230;2022-12-10T00:26:35;0.80;99.90
37222;DHT22;23119;51.842;-2.230;2022-12-10T00:29:05;0.80;99.90
37222;DHT22;23119;51.842;-2.230;2022-12-10T00:31:34;0.80;99.90
37222;DHT22;23119;51.842;-2.230;2022-12-10T00:34:06;0.80;99.90
37222;DHT22;23119;51.842;-2.230;2022-12-10T00:36:41;0.80;99.90
37222;DHT22;23119;51.842;-2.230;2022-12-10T00:39:08;0.80;99.90
37222;DHT22;23119;51.842;-2.230;2022-12-10T00:41:36;0.80;99.90
37222;DHT22;23119;51.842;-2.230;2022-12-10T00:44:02;0.80;99.90
37222;DHT22;23119;51.842;-2.230;2022-12-10T00:46:28;0.80;99.90
37222;DHT22;23119;51.842;-2.230;2022-12-10T00:48:54;0.80;99.90
37222;DHT22;23119;51.842;-2.230;2022-12-10T00:51:22;0.80;99.90
37222;DHT22;23119;51.842;-2.230;2022-12-10T00:53:50;0.80;99.90
37222;DHT22;23119;51.842;-2.230;2022-12-10T00:56:18;0.80;99.90
37222;DHT22;23119;51.842;-2.230;2022-12-10T00:58:48;0.80;99.90
37222;DHT22;23119;51.842;-2.230;2022-12-10T01:01:23;0.80;99.90
37222;DHT22;23119;51.842;-2.230;2022-12-10T01:03:53;0.80;99.90
37222;DHT22;23119;51.842;-2.230;2022-12-10T01:06:24;0.80;99.90
37222;DHT22;23119;51.842;-2.230;2022-12-10T01:08:58;0.80;99.90
37222;DHT22;23119;51.842;-2.230;2022-12-10T01:11:29;0.80;99.90
37222;DHT22;23119;51.842;-2.230;2022-12-10T01:13:58;0.80;99.90
37222;DHT22;23119;51.842;-2.230;2022-12-10T01:16:25;0.80;99.90
37222;DHT22;23119;51.842;-2.230;2022-12-10T01:18:56;0.80;99.90
37222;DHT22;23119;51.842;-2.230;2022-12-10T01:21:26;0.80;99.90
37222;DHT22;23119;51.842;-2.230;2022-12-10T01:23:52;0.80;99.90
37222;DHT22;23119;51.842;-2.230;2022-12-10T01:26:27;0.70;99.90
37222;DHT22;23119;51.842;-2.230;2022-12-10T01:28:54;1.20;99.90
37222;DHT22;23119;51.842;-2.230;2022-12-10T01:31:22;0.70;99.90
37222;DHT22;23119;51.842;-2.230;2022-12-10T01:33:51;0.70;99.90
37222;DHT22;23119;51.842;-2.230;2022-12-10T01:36:27;0.70;99.90
37222;DHT22;23119;51.842;-2.230;2022-12-10T01:38:53;0.70;99.90
37222;DHT22;23119;51.842;-2.230;2022-12-10T01:46:24;0.80;99.90
37222;DHT22;23119;51.842;-2.230;2022-12-10T01:48:52;0.80;99.90
37222;DHT22;23119;51.842;-2.230;2022-12-10T01:51:21;0.80;99.90
37222;DHT22;23119;51.842;-2.230;2022-12-10T01:53:48;0.80;99.90
37222;DHT22;23119;51.842;-2.230;2022-12-10T01:56:33;0.80;99.90
37222;DHT22;23119;51.842;-2.230;2022-12-10T01:59:03;0.80;99.90
37222;DHT22;23119;51.842;-2.230;2022-12-10T02:01:49;0.80;99.90
37222;DHT22;23119;51.842;-2.230;2022-12-10T02:12:27;0.80;99.90
37222;DHT22;23119;51.842;-2.230;2022-12-10T02:15:14;0.90;99.90
37222;DHT22;23119;51.842;-2.230;2022-12-10T02:17:52;0.80;99.90
37222;DHT22;23119;51.842;-2.230;2022-12-10T02:23:05;0.80;99.90
37222;DHT22;23119;51.842;-2.230;2022-12-10T02:31:40;0.80;99.90
37222;DHT22;23119;51.842;-2.230;2022-12-10T02:34:11;0.80;99.90
37222;DHT22;23119;51.842;-2.230;2022-12-10T02:36:43;0.80;99.90
37222;DHT22;23119;51.842;-2.230;2022-12-10T02:39:20;0.80;99.90
37222;DHT22;23119;51.842;-2.230;2022-12-10T02:41:53;0.90;99.90
37222;DHT22;23119;51.842;-2.230;2022-12-10T02:44:23;0.80;99.90
37222;DHT22;23119;51.842;-2.230;2022-12-10T02:46:55;0.80;99.90
37222;DHT22;23119;51.842;-2.230;2022-12-10T02:49:22;0.80;99.90
37222;DHT22;23119;51.842;-2.230;2022-12-10T02:51:52;0.90;99.90
37222;DHT22;23119;51.842;-2.230;2022-12-10T02:54:37;0.80;99.90
37222;DHT22;23119;51.842;-2.230;2022-12-10T02:57:23;0.80;99.90
37222;DHT22;23119;51.842;-2.230;2022-12-10T03:05:48;0.90;99.90
37222;DHT22;23119;51.842;-2.230;2022-12-10T03:11:21;0.90;99.90
37222;DHT22;23119;51.842;-2.230;2022-12-10T03:16:32;0.90;99.90
37222;DHT22;23119;51.842;-2.230;2022-12-10T03:19:03;0.90;99.90
37222;DHT22;23119;51.842;-2.230;2022-12-10T03:21:30;0.90;99.90
37222;DHT22;23119;51.842;-2.230;2022-12-10T03:23:58;0.90;99.90
37222;DHT22;23119;51.842;-2.230;2022-12-10T03:26:27;0.90;99.90
37222;DHT22;23119;51.842;-2.230;2022-12-10T03:29:06;0.90;99.90
37222;DHT22;23119;51.842;-2.230;2022-12-10T03:31:38;0.90;99.90
37222;DHT22;23119;51.842;-2.230;2022-12-10T03:34:10;0.90;99.90
37222;DHT22;23119;51.842;-2.230;2022-12-10T03:37:01;0.90;99.90
37222;DHT22;23119;51.842;-2.230;2022-12-10T03:39:29;0.90;99.90
37222;DHT22;23119;51.842;-2.230;2022-12-10T03:41:55;0.80;99.90
37222;DHT22;23119;51.842;-2.230;2022-12-10T03:44:28;0.80;99.90
37222;DHT22;23119;51.842;-2.230;2022-12-10T03:46:57;0.80;99.90
37222;DHT22;23119;51.842;-2.230;2022-12-10T03:49:23;0.80;99.90
37222;DHT22;23119;51.842;-2.230;2022-12-10T03:51:51;0.80;99.90
37222;DHT22;23119;51.842;-2.230;2022-12-10T03:54:21;0.80;99.90
37222;DHT22;23119;51.842;-2.230;2022-12-10T03:56:50;0.80;99.90
37222;DHT22;23119;51.842;-2.230;2022-12-10T03:59:16;0.80;99.90
37222;DHT22;23119;51.842;-2.230;2022-12-10T04:01:44;0.80;99.90
37222;DHT22;23119;51.842;-2.230;2022-12-10T04:04:11;0.80;99.90
37222;DHT22;23119;51.842;-2.230;2022-12-10T04:06:43;0.80;99.90
37222;DHT22;23119;51.842;-2.230;2022-12-10T04:09:15;0.80;99.90
37222;DHT22;23119;51.842;-2.230;2022-12-10T04:11:43;0.80;99.90
37222;DHT22;23119;51.842;-2.230;2022-12-10T04:14:11;0.80;99.90
37222;DHT22;23119;51.842;-2.230;2022-12-10T04:16:55;0.80;99.90
37222;DHT22;23119;51.842;-2.230;2022-12-10T04:19:21;0.70;99.90
37222;DHT22;23119;51.842;-2.230;2022-12-10T04:21:49;0.80;99.90
37222;DHT22;23119;51.842;-2.230;2022-12-10T04:24:37;0.70;99.90
37222;DHT22;23119;51.842;-2.230;2022-12-10T04:27:24;0.70;99.90
37222;DHT22;23119;51.842;-2.230;2022-12-10T04:29:54;0.70;99.90
37222;DHT22;23119;51.842;-2.230;2022-12-10T04:32:20;0.70;99.90
37222;DHT22;23119;51.842;-2.230;2022-12-10T04:34:49;0.70;99.90
37222;DHT22;23119;51.842;-2.230;2022-12-10T04:37:18;0.70;99.90
37222;DHT22;23119;51.842;-2.230;2022-12-10T04:39:44;0.70;99.90
37222;DHT22;23119;51.842;-2.230;2022-12-10T04:42:13;0.70;99.90
37222;DHT22;23119;51.842;-2.230;2022-12-10T04:44:44;0.70;99.90
37222;DHT22;23119;51.842;-2.230;2022-12-10T04:47:10;0.70;99.90
37222;DHT22;23119;51.842;-2.230;2022-12-10T04:49:44;0.70;99.90
37222;DHT22;23119;51.842;-2.230;2022-12-10T04:52:16;0.70;99.90
37222;DHT22;23119;51.842;-2.230;2022-12-10T04:54:42;0.60;99.90
37222;DHT22;23119;51.842;-2.230;2022-12-10T04:57:11;0.40;99.90
37222;DHT22;23119;51.842;-2.230;2022-12-10T04:59:39;0.60;99.90
37222;DHT22;23119;51.842;-2.230;2022-12-10T05:02:10;0.60;99.90
37222;DHT22;23119;51.842;-2.230;2022-12-10T05:04:41;0.60;99.90
37222;DHT22;23119;51.842;-2.230;2022-12-10T05:07:07;0.70;99.90
37222;DHT22;23119;51.842;-2.230;2022-12-10T05:09:39;0.70;99.90
37222;DHT22;23119;51.842;-2.230;2022-12-10T05:12:07;0.70;99.90
37222;DHT22;23119;51.842;-2.230;2022-12-10T05:14:51;0.70;99.90
37222;DHT22;23119;51.842;-2.230;2022-12-10T05:17:21;0.70;99.90
37222;DHT22;23119;51.842;-2.230;2022-12-10T05:19:50;0.70;99.90
37222;DHT22;23119;51.842;-2.230;2022-12-10T05:22:17;0.70;99.90
37222;DHT22;23119;51.842;-2.230;2022-12-10T05:25:01;0.70;99.90
37222;DHT22;23119;51.842;-2.230;2022-12-10T05:27:31;0.70;99.90
37222;DHT22;23119;51.842;-2.230;2022-12-10T05:29:57;0.70;99.90
37222;DHT22;23119;51.842;-2.230;2022-12-10T05:32:26;0.70;99.90
37222;DHT22;23119;51.842;-2.230;2022-12-10T05:34:51;0.70;99.90
37222;DHT22;23119;51.842;-2.230;2022-12-10T05:37:17;0.70;99.90
37222;DHT22;23119;51.842;-2.230;2022-12-10T05:39:43;0.70;99.90
37222;DHT22;23119;51.842;-2.230;2022-12-10T05:42:08;0.70;99.90
37222;DHT22;23119;51.842;-2.230;2022-12-10T05:44:36;0.70;99.90
37222;DHT22;23119;51.842;-2.230;2022-12-10T05:47:07;0.70;99.90
37222;DHT22;23119;51.842;-2.230;2022-12-10T05:49:33;0.70;99.90
37222;DHT22;23119;51.842;-2.230;2022-12-10T05:52:01;0.70;99.90
37222;DHT22;23119;51.842;-2.230;2022-12-10T05:54:29;0.70;99.90
37222;DHT22;23119;51.842;-2.230;2022-12-10T05:56:55;0.80;99.90
37222;DHT22;23119;51.842;-2.230;2022-12-10T05:59:30;0.80;99.90
37222;DHT22;23119;51.842;-2.230;2022-12-10T06:01:58;0.80;99.90
37222;DHT22;23119;51.842;-2.230;2022-12-10T06:04:23;0.80;99.90
37222;DHT22;23119;51.842;-2.230;2022-12-10T06:06:49;-0.30;99.90
37222;DHT22;23119;51.842;-2.230;2022-12-10T06:09:15;0.80;99.90
37222;DHT22;23119;51.842;-2.230;2022-12-10T06:11:43;0.90;99.90
37222;DHT22;23119;51.842;-2.230;2022-12-10T06:14:10;0.90;99.90
37222;DHT22;23119;51.842;-2.230;2022-12-10T06:16:39;0.90;99.90
37222;DHT22;23119;51.842;-2.230;2022-12-10T06:19:09;0.80;99.90
37222;DHT22;23119;51.842;-2.230;2022-12-10T06:21:37;0.90;99.90
37222;DHT22;23119;51.842;-2.230;2022-12-10T06:24:03;0.90;99.90
37222;DHT22;23119;51.842;-2.230;2022-12-10T06:26:31;0.90;99.90
37222;DHT22;23119;51.842;-2.230;2022-12-10T06:28:57;0.90;99.90
37222;DHT22;23119;51.842;-2.230;2022-12-10T06:31:22;0.90;99.90
37222;DHT22;23119;51.842;-2.230;2022-12-10T06:33:51;0.90;99.90
37222;DHT22;23119;51.842;-2.230;2022-12-10T06:36:19;0.90;99.90
37222;DHT22;23119;51.842;-2.230;2022-12-10T06:38:45;0.90;99.90
37222;DHT22;23119;51.842;-2.230;2022-12-10T06:41:16;0.90;99.90
37222;DHT22;23119;51.842;-2.230;2022-12-10T06:43:44;0.90;99.90
37222;DHT22;23119;51.842;-2.230;2022-12-10T06:46:19;0.90;99.90
37222;DHT22;23119;51.842;-2.230;2022-12-10T06:48:46;0.90;99.90
37222;DHT22;23119;51.842;-2.230;2022-12-10T06:51:17;0.90;99.90
37222;DHT22;23119;51.842;-2.230;2022-12-10T06:53:46;0.90;99.90
37222;DHT22;23119;51.842;-2.230;2022-12-10T06:56:14;0.90;99.90
37222;DHT22;23119;51.842;-2.230;2022-12-10T06:58:46;0.90;99.90
37222;DHT22;23119;51.842;-2.230;2022-12-10T07:01:16;0.90;99.90
37222;DHT22;23119;51.842;-2.230;2022-12-10T07:03:43;0.80;99.90
37222;DHT22;23119;51.842;-2.230;2022-12-10T07:06:16;0.80;99.90
37222;DHT22;23119;51.842;-2.230;2022-12-10T07:08:47;0.80;99.90
37222;DHT22;23119;51.842;-2.230;2022-12-10T07:11:16;0.80;99.90
37222;DHT22;23119;51.842;-2.230;2022-12-10T07:13:42;0.80;99.90
37222;DHT22;23119;51.842;-2.230;2022-12-10T07:16:13;0.80;99.90
37222;DHT22;23119;51.842;-2.230;2022-12-10T07:18:39;0.80;99.90
37222;DHT22;23119;51.842;-2.230;2022-12-10T07:21:24;0.70;99.90
37222;DHT22;23119;51.842;-2.230;2022-12-10T07:23:57;0.70;99.90
37222;DHT22;23119;51.842;-2.230;2022-12-10T07:26:35;0.70;99.90
37222;DHT22;23119;51.842;-2.230;2022-12-10T07:29:05;3.00;99.90
37222;DHT22;23119;51.842;-2.230;2022-12-10T07:31:33;0.80;99.90
37222;DHT22;23119;51.842;-2.230;2022-12-10T07:33:59;0.70;99.90
37222;DHT22;23119;51.842;-2.230;2022-12-10T07:36:26;0.80;99.90
37222;DHT22;23119;51.842;-2.230;2022-12-10T07:38:55;0.70;99.90
37222;DHT22;23119;51.842;-2.230;2022-12-10T07:41:22;0.70;99.90
37222;DHT22;23119;51.842;-2.230;2022-12-10T07:43:48;0.70;99.90
37222;DHT22;23119;51.842;-2.230;2022-12-10T07:46:20;0.70;99.90
37222;DHT22;23119;51.842;-2.230;2022-12-10T07:48:51;0.70;99.90
37222;DHT22;23119;51.842;-2.230;2022-12-10T07:51:19;0.80;99.90
37222;DHT22;23119;51.842;-2.230;2022-12-10T07:53:46;0.70;99.90
37222;DHT22;23119;51.842;-2.230;2022-12-10T07:56:17;0.80;99.90
37222;DHT22;23119;51.842;-2.230;2022-12-10T07:58:43;0.70;99.90
37222;DHT22;23119;51.842;-2.230;2022-12-10T08:01:18;0.80;99.90
37222;DHT22;23119;51.842;-2.230;2022-12-10T08:03:46;0.70;99.90
37222;DHT22;23119;51.842;-2.230;2022-12-10T08:06:19;0.80;99.90
37222;DHT22;23119;51.842;-2.230;2022-12-10T08:08:49;0.80;99.90
37222;DHT22;23119;51.842;-2.230;2022-12-10T08:11:16;0.80;99.90
37222;DHT22;23119;51.842;-2.230;2022-12-10T08:13:45;0.80;99.90
37222;DHT22;23119;51.842;-2.230;2022-12-10T08:16:18;0.90;99.90
37222;DHT22;23119;51.842;-2.230;2022-12-10T08:18:50;0.90;99.90
37222;DHT22;23119;51.842;-2.230;2022-12-10T08:21:20;0.90;99.90
37222;DHT22;23119;51.842;-2.230;2022-12-10T08:23:47;0.90;99.90
37222;DHT22;23119;51.842;-2.230;2022-12-10T08:26:33;1.00;99.90
37222;DHT22;23119;51.842;-2.230;2022-12-10T08:29:01;1.00;99.90
37222;DHT22;23119;51.842;-2.230;2022-12-10T08:31:44;1.10;99.90
37222;DHT22;23119;51.842;-2.230;2022-12-10T08:34:18;1.10;99.90
37222;DHT22;23119;51.842;-2.230;2022-12-10T08:36:44;1.10;99.90
37222;DHT22;23119;51.842;-2.230;2022-12-10T08:39:11;1.20;99.90
37222;DHT22;23119;51.842;-2.230;2022-12-10T08:41:40;1.10;99.90
37222;DHT22;23119;51.842;-2.230;2022-12-10T08:44:06;1.20;99.90
37222;DHT22;23119;51.842;-2.230;2022-12-10T08:46:32;1.20;99.90
37222;DHT22;23119;51.842;-2.230;2022-12-10T08:48:58;1.90;99.90
37222;DHT22;23119;51.842;-2.230;2022-12-10T08:51:24;1.30;99.90
37222;DHT22;23119;51.842;-2.230;2022-12-10T08:53:53;1.30;99.90
37222;DHT22;23119;51.842;-2.230;2022-12-10T08:56:19;1.30;99.90
37222;DHT22;23119;51.842;-2.230;2022-12-10T08:58:53;1.40;99.90
37222;DHT22;23119;51.842;-2.230;2022-12-10T09:01:19;1.40;99.90
37222;DHT22;23119;51.842;-2.230;2022-12-10T09:03:45;1.50;99.90
37222;DHT22;23119;51.842;-2.230;2022-12-10T09:06:17;1.50;99.90
37222;DHT22;23119;51.842;-2.230;2022-12-10T09:08:43;1.60;99.90
37222;DHT22;23119;51.842;-2.230;2022-12-10T09:11:33;1.60;99.90
37222;DHT22;23119;51.842;-2.230;2022-12-10T09:13:57;1.60;99.90
37222;DHT22;23119;51.842;-2.230;2022-12-10T09:16:34;1.70;99.90
37222;DHT22;23119;51.842;-2.230;2022-12-10T09:19:01;1.70;99.90
37222;DHT22;23119;51.842;-2.230;2022-12-10T09:21:28;1.80;99.90
37222;DHT22;23119;51.842;-2.230;2022-12-10T09:23:56;1.80;99.90
37222;DHT22;23119;51.842;-2.230;2022-12-10T09:26:24;1.80;99.90
37222;DHT22;23119;51.842;-2.230;2022-12-10T09:28:50;1.90;99.90
37222;DHT22;23119;51.842;-2.230;2022-12-10T09:31:20;2.00;99.90
37222;DHT22;23119;51.842;-2.230;2022-12-10T09:33:49;2.20;99.90
37222;DHT22;23119;51.842;-2.230;2022-12-10T09:36:19;2.50;99.90
37222;DHT22;23119;51.842;-2.230;2022-12-10T09:38:48;2.90;99.90
37222;DHT22;23119;51.842;-2.230;2022-12-10T09:44:09;3.50;99.90
37222;DHT22;23119;51.842;-2.230;2022-12-10T09:46:58;4.20;99.90
37222;DHT22;23119;51.842;-2.230;2022-12-10T09:49:30;5.20;99.90
37222;DHT22;23119;51.842;-2.230;2022-12-10T09:52:02;6.30;99.90
37222;DHT22;23119;51.842;-2.230;2022-12-10T09:54:44;7.40;99.90
37222;DHT22;23119;51.842;-2.230;2022-12-10T09:57:16;7.90;99.90
37222;DHT22;23119;51.842;-2.230;2022-12-10T09:59:49;7.80;99.90
37222;DHT22;23119;51.842;-2.230;2022-12-10T10:02:31;7.50;99.90
37222;DHT22;23119;51.842;-2.230;2022-12-10T10:05:12;7.20;99.90
37222;DHT22;23119;51.842;-2.230;2022-12-10T10:07:43;6.60;99.90
37222;DHT22;23119;51.842;-2.230;2022-12-10T10:10:35;6.20;99.90
37222;DHT22;23119;51.842;-2.230;2022-12-10T10:15:39;5.40;99.90
37222;DHT22;23119;51.842;-2.230;2022-12-10T10:18:33;5.10;99.90
37222;DHT22;23119;51.842;-2.230;2022-12-10T10:21:03;4.80;99.90
37222;DHT22;23119;51.842;-2.230;2022-12-10T10:23:34;4.60;99.90
37222;DHT22;23119;51.842;-2.230;2022-12-10T10:26:00;4.40;99.90
37222;DHT22;23119;51.842;-2.230;2022-12-10T10:28:26;4.20;99.90
37222;DHT22;23119;51.842;-2.230;2022-12-10T10:30:54;4.10;99.90
37222;DHT22;23119;51.842;-2.230;2022-12-10T10:33:26;3.90;99.90
37222;DHT22;23119;51.842;-2.230;2022-12-10T10:35:57;3.80;99.90
37222;DHT22;23119;51.842;-2.230;2022-12-10T10:38:27;3.80;99.90
37222;DHT22;23119;51.842;-2.230;2022-12-10T10:41:01;3.70;99.90
37222;DHT22;23119;51.842;-2.230;2022-12-10T10:43:53;3.70;99.90
37222;DHT22;23119;51.842;-2.230;2022-12-10T10:46:23;3.60;99.90
37222;DHT22;23119;51.842;-2.230;2022-12-10T10:48:50;3.60;99.90
37222;DHT22;23119;51.842;-2.230;2022-12-10T10:51:22;3.50;99.90
37222;DHT22;23119;51.842;-2.230;2022-12-10T10:53:56;3.40;99.90
37222;DHT22;23119;51.842;-2.230;2022-12-10T10:56:26;3.50;99.90
37222;DHT22;23119;51.842;-2.230;2022-12-10T10:59:04;3.50;99.90
37222;DHT22;23119;51.842;-2.230;2022-12-10T11:01:47;3.50;99.90
37222;DHT22;23119;51.842;-2.230;2022-12-10T11:04:22;3.50;99.90
37222;DHT22;23119;51.842;-2.230;2022-12-10T11:06:54;3.50;99.90
37222;DHT22;23119;51.842;-2.230;2022-12-10T11:09:32;3.60;99.90
37222;DHT22;23119;51.842;-2.230;2022-12-10T11:12:05;3.60;99.90
37222;DHT22;23119;51.842;-2.230;2022-12-10T11:14:38;3.50;99.90
37222;DHT22;23119;51.842;-2.230;2022-12-10T11:19:42;3.50;99.90
37222;DHT22;23119;51.842;-2.230;2022-12-10T11:22:41;3.50;99.90
37222;DHT22;23119;51.842;-2.230;2022-12-10T11:25:24;3.50;99.90
37222;DHT22;23119;51.842;-2.230;2022-12-10T11:34:19;3.40;99.90
37222;DHT22;23119;51.842;-2.230;2022-12-10T11:39:52;3.40;99.90
37222;DHT22;23119;51.842;-2.230;2022-12-10T11:45:52;3.50;99.90
37222;DHT22;23119;51.842;-2.230;2022-12-10T11:48:50;3.40;99.90
37222;DHT22;23119;51.842;-2.230;2022-12-10T11:54:14;3.50;99.90
37222;DHT22;23119;51.842;-2.230;2022-12-10T11:56:47;3.50;99.90
37222;DHT22;23119;51.842;-2.230;2022-12-10T11:59:39;3.50;99.90
37222;DHT22;23119;51.842;-2.230;2022-12-10T12:18:43;3.60;99.90
37222;DHT22;23119;51.842;-2.230;2022-12-10T12:21:13;3.60;99.90
37222;DHT22;23119;51.842;-2.230;2022-12-10T12:23:56;3.60;99.90
37222;DHT22;23119;51.842;-2.230;2022-12-10T12:29:17;3.60;99.90
37222;DHT22;23119;51.842;-2.230;2022-12-10T12:32:07;3.70;99.90
37222;DHT22;23119;51.842;-2.230;2022-12-10T12:34:46;3.70;99.90
37222;DHT22;23119;51.842;-2.230;2022-12-10T12:37:17;3.80;99.90
37222;DHT22;23119;51.842;-2.230;2022-12-10T12:45:48;3.90;99.90
37222;DHT22;23119;51.842;-2.230;2022-12-10T12:48:31;3.90;99.90
37222;DHT22;23119;51.842;-2.230;2022-12-10T12:53:51;4.00;99.90
37222;DHT22;23119;51.842;-2.230;2022-12-10T13:01:57;4.10;99.90
37222;DHT22;23119;51.842;-2.230;2022-12-10T13:04:28;4.10;99.90
37222;DHT22;23119;51.842;-2.230;2022-12-10T13:09:50;4.10;99.90
37222;DHT22;23119;51.842;-2.230;2022-12-10T13:12:28;4.20;99.90
37222;DHT22;23119;51.842;-2.230;2022-12-10T13:20:34;4.20;99.90
37222;DHT22;23119;51.842;-2.230;2022-12-10T13:37:02;4.20;99.90
37222;DHT22;23119;51.842;-2.230;2022-12-10T13:50:06;4.20;99.90
37222;DHT22;23119;51.842;-2.230;2022-12-10T13:55:42;4.20;99.90
37222;DHT22;23119;51.842;-2.230;2022-12-10T14:01:20;4.20;99.90
37222;DHT22;23119;51.842;-2.230;2022-12-10T14:04:10;4.10;99.90
37222;DHT22;23119;51.842;-2.230;2022-12-10T14:06:42;4.10;99.90
37222;DHT22;23119;51.842;-2.230;2022-12-10T14:09:46;4.10;99.90
37222;DHT22;23119;51.842;-2.230;2022-12-10T14:12:35;4.10;99.90
37222;DHT22;23119;51.842;-2.230;2022-12-10T14:17:43;4.10;99.90
37222;DHT22;23119;51.842;-2.230;2022-12-10T14:20:32;4.10;99.90
37222;DHT22;23119;51.842;-2.230;2022-12-10T14:23:04;4.10;99.90
37222;DHT22;23119;51.842;-2.230;2022-12-10T14:25:51;4.10;99.90
37222;DHT22;23119;51.842;-2.230;2022-12-10T14:28:18;4.00;99.90
37222;DHT22;23119;51.842;-2.230;2022-12-10T14:30:48;4.00;99.90
37222;DHT22;23119;51.842;-2.230;2022-12-10T14:33:20;3.90;99.90
37222;DHT22;23119;51.842;-2.230;2022-12-10T14:35:50;3.80;99.90
37222;DHT22;23119;51.842;-2.230;2022-12-10T14:38:31;3.80;99.90
37222;DHT22;23119;51.842;-2.230;2022-12-10T14:41:02;3.70;99.90
37222;DHT22;23119;51.842;-2.230;2022-12-10T14:43:38;3.70;99.90
37222;DHT22;23119;51.842;-2.230;2022-12-10T14:46:19;3.60;99.90
37222;DHT22;23119;51.842;-2.230;2022-12-10T14:48:53;3.60;99.90
37222;DHT22;23119;51.842;-2.230;2022-12-10T14:51:25;3.60;99.90
37222;DHT22;23119;51.842;-2.230;2022-12-10T14:53:52;3.60;99.90
37222;DHT22;23119;51.842;-2.230;2022-12-10T15:01:49;3.50;99.90
37222;DHT22;23119;51.842;-2.230;2022-12-10T15:04:42;3.50;99.90
37222;DHT22;23119;51.842;-2.230;2022-12-10T15:07:14;3.50;99.90
37222;DHT22;23119;51.842;-2.230;2022-12-10T15:09:42;3.50;99.90
37222;DHT22;23119;51.842;-2.230;2022-12-10T15:12:23;3.50;99.90
37222;DHT22;23119;51.842;-2.230;2022-12-10T15:15:04;3.50;99.90
37222;DHT22;23119;51.842;-2.230;2022-12-10T15:17:55;3.40;99.90
37222;DHT22;23119;51.842;-2.230;2022-12-10T15:23:34;3.40;99.90
37222;DHT22;23119;51.842;-2.230;2022-12-10T15:26:09;3.40;99.90
37222;DHT22;23119;51.842;-2.230;2022-12-10T15:28:42;3.40;99.90
37222;DHT22;23119;51.842;-2.230;2022-12-10T15:31:31;3.40;99.90
37222;DHT22;23119;51.842;-2.230;2022-12-10T15:34:05;3.40;99.90
37222;DHT22;23119;51.842;-2.230;2022-12-10T15:36:43;3.30;99.90
37222;DHT22;23119;51.842;-2.230;2022-12-10T15:39:29;3.30;99.90
37222;DHT22;23119;51.842;-2.230;2022-12-10T15:42:08;3.20;99.90
37222;DHT22;23119;51.842;-2.230;2022-12-10T15:44:44;3.10;99.90
37222;DHT22;23119;51.842;-2.230;2022-12-10T15:47:27;3.10;99.90
37222;DHT22;23119;51.842;-2.230;2022-12-10T15:49:55;3.10;99.90
37222;DHT22;23119;51.842;-2.230;2022-12-10T15:52:29;3.00;99.90
37222;DHT22;23119;51.842;-2.230;2022-12-10T15:54:56;3.00;99.90
37222;DHT22;23119;51.842;-2.230;2022-12-10T15:57:36;3.00;99.90
37222;DHT22;23119;51.842;-2.230;2022-12-10T16:00:14;2.90;99.90
37222;DHT22;23119;51.842;-2.230;2022-12-10T16:02:48;2.90;99.90
37222;DHT22;23119;51.842;-2.230;2022-12-10T16:07:51;2.80;99.90
37222;DHT22;23119;51.842;-2.230;2022-12-10T16:10:22;2.80;99.90
37222;DHT22;23119;51.842;-2.230;2022-12-10T16:13:02;2.70;99.90
37222;DHT22;23119;51.842;-2.230;2022-12-10T16:15:46;2.70;99.90
37222;DHT22;23119;51.842;-2.230;2022-12-10T16:18:12;2.70;99.90
37222;DHT22;23119;51.842;-2.230;2022-12-10T16:20:38;2.60;99.90
37222;DHT22;23119;51.842;-2.230;2022-12-10T16:23:04;2.60;99.90
37222;DHT22;23119;51.842;-2.230;2022-12-10T16:25:43;2.60;99.90
37222;DHT22;23119;51.842;-2.230;2022-12-10T16:28:17;2.50;99.90
37222;DHT22;23119;51.842;-2.230;2022-12-10T16:30:52;2.50;99.90
37222;DHT22;23119;51.842;-2.230;2022-12-10T16:33:25;2.50;99.90
37222;DHT22;23119;51.842;-2.230;2022-12-10T16:35:55;2.50;99.90
37222;DHT22;23119;51.842;-2.230;2022-12-10T16:38:23;2.40;99.90
37222;DHT22;23119;51.842;-2.230;2022-12-10T16:40:50;2.40;99.90
37222;DHT22;23119;51.842;-2.230;2022-12-10T16:43:23;2.40;99.90
37222;DHT22;23119;51.842;-2.230;2022-12-10T16:45:50;2.30;99.90
37222;DHT22;23119;51.842;-2.230;2022-12-10T16:48:17;2.30;99.90
37222;DHT22;23119;51.842;-2.230;2022-12-10T16:50:46;2.20;99.90
37222;DHT22;23119;51.842;-2.230;2022-12-10T16:53:24;2.20;99.90
37222;DHT22;23119;51.842;-2.230;2022-12-10T16:55:52;2.20;99.90
37222;DHT22;23119;51.842;-2.230;2022-12-10T16:58:23;2.10;99.90
37222;DHT22;23119;51.842;-2.230;2022-12-10T17:00:57;2.10;99.90
37222;DHT22;23119;51.842;-2.230;2022-12-10T17:03:25;2.00;99.90
37222;DHT22;23119;51.842;-2.230;2022-12-10T17:06:00;2.00;99.90
37222;DHT22;23119;51.842;-2.230;2022-12-10T17:08:31;2.00;99.90
37222;DHT22;23119;51.842;-2.230;2022-12-10T17:16:55;1.90;99.90
37222;DHT22;23119;51.842;-2.230;2022-12-10T17:19:27;1.90;99.90
37222;DHT22;23119;51.842;-2.230;2022-12-10T17:21:55;1.90;99.90
37222;DHT22;23119;51.842;-2.230;2022-12-10T17:24:23;1.80;99.90
37222;DHT22;23119;51.842;-2.230;2022-12-10T17:26:56;1.80;99.90
37222;DHT22;23119;51.842;-2.230;2022-12-10T17:29:33;1.80;99.90
37222;DHT22;23119;51.842;-2.230;2022-12-10T17:32:02;1.80;99.90
37222;DHT22;23119;51.842;-2.230;2022-12-10T17:34:28;1.80;99.90
37222;DHT22;23119;51.842;-2.230;2022-12-10T17:36:54;1.80;99.90
37222;DHT22;23119;51.842;-2.230;2022-12-10T17:39:24;1.70;99.90
37222;DHT22;23119;51.842;-2.230;2022-12-10T17:41:54;1.70;99.90
37222;DHT22;23119;51.842;-2.230;2022-12-10T17:44:20;1.70;99.90
37222;DHT22;23119;51.842;-2.230;2022-12-10T17:46:47;1.70;99.90
37222;DHT22;23119;51.842;-2.230;2022-12-10T17:49:14;1.60;99.90
37222;DHT22;23119;51.842;-2.230;2022-12-10T17:51:41;1.60;99.90
37222;DHT22;23119;51.842;-2.230;2022-12-10T17:54:07;1.60;99.90
37222;DHT22;23119;51.842;-2.230;2022-12-10T17:56:33;1.60;99.90
37222;DHT22;23119;51.842;-2.230;2022-12-10T17:59:07;1.60;99.90
37222;DHT22;23119;51.842;-2.230;2022-12-10T18:01:38;1.60;99.90
37222;DHT22;23119;51.842;-2.230;2022-12-10T18:04:13;1.60;99.90
37222;DHT22;23119;51.842;-2.230;2022-12-10T18:06:41;1.60;99.90
37222;DHT22;23119;51.842;-2.230;2022-12-10T18:09:11;1.60;99.90
37222;DHT22;23119;51.842;-2.230;2022-12-10T18:11:38;1.60;99.90
37222;DHT22;23119;51.842;-2.230;2022-12-10T18:14:13;1.60;99.90
37222;DHT22;23119;51.842;-2.230;2022-12-10T18:16:39;1.50;99.90
37222;DHT22;23119;51.842;-2.230;2022-12-10T18:19:14;1.50;99.90
37222;DHT22;23119;51.842;-2.230;2022-12-10T18:21:43;1.50;99.90
37222;DHT22;23119;51.842;-2.230;2022-12-10T18:24:08;1.50;99.90
37222;DHT22;23119;51.842;-2.230;2022-12-10T18:26:38;1.50;99.90
37222;DHT22;23119;51.842;-2.230;2022-12-10T18:29:08;1.50;99.90